Time;durP1;ratioP1;P1;durP2;ratioP2;P2;SDS_P1;SDS_P2;PMS_P1;PMS_P2;Temp;Humidity;BMP_temperature;BMP_pressure;BME280_temperature;BME280_humidity;BME280_pressure;Samples;Min_cycle;Max_cycle;Signal;HPM_P1;HPM_P2
2023/08/24 00:00:42;;;;;;;17.67;10.65;;;;;;;;;;5005156;28;20062;-78
2023/08/24 00:03:11;;;;;;;15.90;10.73;;;;;;;;;;5008194;28;20100;-78
2023/08/24 00:05:37;;;;;;;20.10;11.27;;;;;;;;;;4990838;28;20038;-78
2023/08/24 00:08:07;;;;;;;16.33;11.80;;;;;;;;;;5005982;28;21261;-78
2023/08/24 00:10:34;;;;;;;22.33;11.20;;;;;;;;;;4991437;28;20025;-77
2023/08/24 00:13:00;;;;;;;19.70;12.55;;;;;;;;;;5004552;28;20026;-78
2023/08/24 00:15:26;;;;;;;21.17;13.75;;;;;;;;;;5006841;28;20053;-78
2023/08/24 00:17:52;;;;;;;22.17;13.90;;;;;;;;;;5001458;28;20064;-78
2023/08/24 00:20:19;;;;;;;26.27;14.52;;;;;;;;;;5003484;28;20057;-76
2023/08/24 00:22:47;;;;;;;20.10;14.63;;;;;;;;;;5010665;28;20033;-77
2023/08/24 00:25:13;;;;;;;20.85;13.98;;;;;;;;;;5015698;28;20029;-77
2023/08/24 00:27:40;;;;;;;23.92;15.48;;;;;;;;;;5015807;28;20042;-78
2023/08/24 00:30:08;;;;;;;24.40;15.13;;;;;;;;;;5017609;28;20026;-77
2023/08/24 00:32:34;;;;;;;24.58;15.38;;;;;;;;;;4996120;28;20563;-78
2023/08/24 00:35:05;;;;;;;23.85;14.82;;;;;;;;;;5010495;28;20379;-78
2023/08/24 00:37:32;;;;;;;30.10;16.48;;;;;;;;;;5006406;28;20026;-77
2023/08/24 00:40:00;;;;;;;18.00;14.05;;;;;;;;;;4992310;28;20353;-78
2023/08/24 00:42:27;;;;;;;20.75;14.30;;;;;;;;;;4970362;28;20031;-79
2023/08/24 00:44:53;;;;;;;20.30;14.13;;;;;;;;;;4990424;28;20034;-78
2023/08/24 00:47:20;;;;;;;20.58;13.50;;;;;;;;;;4992698;28;20033;-78
2023/08/24 00:49:46;;;;;;;21.10;13.25;;;;;;;;;;5006939;28;20041;-78
2023/08/24 00:52:13;;;;;;;21.42;13.10;;;;;;;;;;5008479;28;20026;-77
2023/08/24 00:54:40;;;;;;;19.58;12.95;;;;;;;;;;5007239;28;20026;-77
2023/08/24 00:57:06;;;;;;;20.08;12.65;;;;;;;;;;5008009;28;20050;-77
2023/08/24 00:59:33;;;;;;;20.95;12.77;;;;;;;;;;4990865;28;20026;-77
2023/08/24 01:02:00;;;;;;;24.88;14.05;;;;;;;;;;4993262;28;20399;-78
2023/08/24 01:04:27;;;;;;;21.98;13.18;;;;;;;;;;4978835;28;20034;-77
2023/08/24 01:06:53;;;;;;;23.67;14.73;;;;;;;;;;5008136;28;20072;-77
2023/08/24 01:09:20;;;;;;;24.38;14.98;;;;;;;;;;4995299;28;20023;-78
2023/08/24 01:12:01;;;;;;;25.02;14.15;;;;;;;;;;5003839;28;20049;-77
2023/08/24 01:14:48;;;;;;;20.90;13.80;;;;;;;;;;5008343;28;20510;-78
2023/08/24 01:17:18;;;;;;;21.30;13.70;;;;;;;;;;4990855;28;20030;-78
2023/08/24 01:19:47;;;;;;;22.15;13.52;;;;;;;;;;5005822;28;20029;-77
2023/08/24 01:22:13;;;;;;;23.25;13.55;;;;;;;;;;5002828;28;20138;-78
2023/08/24 01:24:43;;;;;;;23.42;15.15;;;;;;;;;;5007653;28;20038;-77
2023/08/24 01:27:10;;;;;;;21.10;12.90;;;;;;;;;;5002499;28;20079;-78
2023/08/24 01:29:36;;;;;;;19.55;12.95;;;;;;;;;;4989085;28;20026;-78
2023/08/24 01:32:02;;;;;;;19.25;12.93;;;;;;;;;;4989734;28;20030;-79
2023/08/24 01:34:28;;;;;;;19.33;13.70;;;;;;;;;;4999838;28;20033;-78
2023/08/24 01:36:55;;;;;;;19.73;13.98;;;;;;;;;;5008213;28;20124;-78
2023/08/24 01:39:30;;;;;;;20.52;13.88;;;;;;;;;;4995858;28;20507;-77
2023/08/24 01:41:57;;;;;;;24.38;14.48;;;;;;;;;;4993282;28;20499;-78
2023/08/24 01:44:26;;;;;;;25.45;14.57;;;;;;;;;;5013579;28;20107;-76
2023/08/24 01:46:53;;;;;;;18.50;13.45;;;;;;;;;;4992831;28;20038;-76
2023/08/24 01:49:20;;;;;;;24.20;13.38;;;;;;;;;;5007556;28;20502;-78
2023/08/24 01:51:46;;;;;;;26.00;14.23;;;;;;;;;;4976842;28;20038;-78
2023/08/24 01:54:13;;;;;;;17.50;12.82;;;;;;;;;;4991712;28;20038;-78
2023/08/24 01:56:39;;;;;;;19.35;13.27;;;;;;;;;;4988211;28;20042;-78
2023/08/24 01:59:24;;;;;;;20.60;12.85;;;;;;;;;;4990779;28;20053;-78
2023/08/24 02:01:50;;;;;;;25.17;13.75;;;;;;;;;;4989125;28;20026;-77
2023/08/24 02:04:16;;;;;;;19.52;12.75;;;;;;;;;;5007255;28;20026;-79
2023/08/24 02:06:42;;;;;;;25.02;12.63;;;;;;;;;;4990377;28;20464;-79
2023/08/24 02:09:08;;;;;;;22.27;11.82;;;;;;;;;;4989114;28;20046;-79
2023/08/24 02:11:34;;;;;;;23.50;12.73;;;;;;;;;;4991290;28;20092;-79
2023/08/24 02:14:02;;;;;;;19.20;13.18;;;;;;;;;;4991105;28;20124;-79
2023/08/24 02:16:28;;;;;;;24.55;13.52;;;;;;;;;;5006926;28;20553;-79
2023/08/24 02:18:54;;;;;;;21.83;12.80;;;;;;;;;;4990237;28;20500;-79
2023/08/24 02:21:20;;;;;;;24.50;13.00;;;;;;;;;;5009488;28;20112;-79
2023/08/24 02:23:46;;;;;;;18.33;12.52;;;;;;;;;;4994502;28;20042;-79
2023/08/24 02:26:13;;;;;;;20.85;12.18;;;;;;;;;;4997673;28;20029;-79
2023/08/24 02:28:39;;;;;;;18.52;12.38;;;;;;;;;;5012399;28;20034;-80
2023/08/24 02:31:05;;;;;;;22.90;13.07;;;;;;;;;;5002656;28;20061;-80
2023/08/24 02:33:32;;;;;;;26.27;13.13;;;;;;;;;;5003253;28;20112;-80
2023/08/24 02:35:58;;;;;;;30.33;14.05;;;;;;;;;;5004298;28;20060;-80
2023/08/24 02:38:24;;;;;;;26.30;13.07;;;;;;;;;;5006950;28;20038;-80
2023/08/24 02:41:00;;;;;;;20.90;12.15;;;;;;;;;;5003092;28;20113;-79
2023/08/24 02:43:27;;;;;;;20.52;11.98;;;;;;;;;;4987954;28;20509;-80
2023/08/24 02:45:54;;;;;;;20.65;12.75;;;;;;;;;;5002293;28;20057;-80
2023/08/24 02:48:22;;;;;;;24.85;13.10;;;;;;;;;;4988607;28;20034;-79
2023/08/24 02:50:48;;;;;;;19.35;14.45;;;;;;;;;;5001028;28;20065;-78
2023/08/24 02:53:15;;;;;;;23.23;14.45;;;;;;;;;;4987327;28;20025;-80
2023/08/24 02:55:43;;;;;;;23.40;14.23;;;;;;;;;;4994313;28;20053;-79
2023/08/24 02:58:09;;;;;;;23.83;14.60;;;;;;;;;;4990097;28;20253;-80
2023/08/24 03:00:39;;;;;;;26.27;15.50;;;;;;;;;;4999286;28;20030;-79
2023/08/24 03:03:08;;;;;;;26.52;14.82;;;;;;;;;;4994764;28;20030;-79
2023/08/24 03:05:34;;;;;;;23.15;15.73;;;;;;;;;;5003890;28;20034;-80
2023/08/24 03:08:00;;;;;;;27.30;15.88;;;;;;;;;;4998182;28;20090;-80
2023/08/24 03:10:26;;;;;;;26.85;16.73;;;;;;;;;;4993782;28;20026;-80
2023/08/24 03:12:53;;;;;;;26.80;16.48;;;;;;;;;;4994525;28;20037;-79
2023/08/24 03:15:21;;;;;;;27.20;17.55;;;;;;;;;;4993632;28;20034;-79
2023/08/24 03:17:47;;;;;;;28.77;17.50;;;;;;;;;;5000950;28;20144;-79
2023/08/24 03:20:14;;;;;;;32.58;19.98;;;;;;;;;;5000634;28;20039;-80
2023/08/24 03:22:40;;;;;;;29.25;18.10;;;;;;;;;;4992538;28;20027;-80
2023/08/24 03:25:09;;;;;;;28.50;17.95;;;;;;;;;;5003469;28;20034;-79
2023/08/24 03:27:36;;;;;;;30.27;19.60;;;;;;;;;;4988370;28;20174;-79
2023/08/24 03:30:04;;;;;;;33.40;18.90;;;;;;;;;;4988855;28;20022;-78
2023/08/24 03:32:30;;;;;;;34.67;20.27;;;;;;;;;;5005333;28;20026;-79
2023/08/24 03:35:00;;;;;;;32.97;19.60;;;;;;;;;;4989730;28;20252;-80
2023/08/24 03:37:26;;;;;;;34.38;19.92;;;;;;;;;;5007919;28;20092;-79
2023/08/24 03:39:54;;;;;;;37.08;20.83;;;;;;;;;;5010810;28;20030;-79
2023/08/24 03:42:20;;;;;;;33.92;21.05;;;;;;;;;;4995933;28;20041;-78
2023/08/24 03:44:47;;;;;;;41.85;22.55;;;;;;;;;;5011417;28;20034;-79
2023/08/24 03:47:13;;;;;;;40.42;22.08;;;;;;;;;;5002902;28;20435;-79
2023/08/24 03:49:39;;;;;;;38.85;23.63;;;;;;;;;;5002668;28;20030;-78
2023/08/24 03:52:06;;;;;;;44.30;23.38;;;;;;;;;;4998429;28;20055;-79
2023/08/24 03:54:33;;;;;;;35.97;23.45;;;;;;;;;;5009405;28;20030;-78
2023/08/24 03:56:59;;;;;;;40.55;23.90;;;;;;;;;;4977132;28;20038;-78
2023/08/24 03:59:25;;;;;;;42.28;25.00;;;;;;;;;;4992215;28;20027;-81
2023/08/24 04:01:51;;;;;;;44.42;24.58;;;;;;;;;;5009759;28;20042;-78
2023/08/24 04:04:17;;;;;;;42.42;25.63;;;;;;;;;;5007260;28;20037;-80
2023/08/24 04:06:44;;;;;;;44.45;25.20;;;;;;;;;;4994640;28;20392;-80
2023/08/24 04:09:10;;;;;;;43.88;25.52;;;;;;;;;;5010587;28;20037;-79
2023/08/24 04:11:55;;;;;;;40.67;26.13;;;;;;;;;;5007519;28;20038;-80
2023/08/24 04:14:21;;;;;;;47.80;27.10;;;;;;;;;;5011125;28;20036;-80
2023/08/24 04:16:49;;;;;;;50.25;27.85;;;;;;;;;;5007627;28;20148;-81
2023/08/24 04:19:15;;;;;;;44.42;26.52;;;;;;;;;;4989593;28;20167;-78
2023/08/24 04:21:41;;;;;;;48.08;27.65;;;;;;;;;;5012242;28;20460;-79
2023/08/24 04:24:08;;;;;;;49.88;28.40;;;;;;;;;;5018480;28;20125;-79
2023/08/24 04:26:35;;;;;;;51.67;28.33;;;;;;;;;;5023364;28;20029;-79
2023/08/24 04:29:01;;;;;;;46.45;28.02;;;;;;;;;;5019623;28;20048;-80
2023/08/24 04:31:27;;;;;;;51.13;29.20;;;;;;;;;;5010112;28;20045;-80
2023/08/24 04:33:53;;;;;;;53.70;28.63;;;;;;;;;;5012042;28;20038;-80
2023/08/24 04:36:19;;;;;;;50.63;28.23;;;;;;;;;;5009433;28;20037;-81
2023/08/24 04:38:46;;;;;;;60.90;28.25;;;;;;;;;;5008437;28;20527;-80
2023/08/24 04:41:12;;;;;;;57.63;30.30;;;;;;;;;;5008879;28;20384;-80
2023/08/24 04:43:38;;;;;;;56.88;31.85;;;;;;;;;;5008551;28;20403;-80
2023/08/24 04:46:23;;;;;;;60.90;30.75;;;;;;;;;;5006708;28;20050;-79
2023/08/24 04:48:49;;;;;;;51.70;30.50;;;;;;;;;;5005803;28;20053;-80
2023/08/24 04:51:15;;;;;;;54.30;30.90;;;;;;;;;;5003659;28;20030;-80
2023/08/24 04:53:42;;;;;;;58.38;31.38;;;;;;;;;;4991806;28;20030;-80
2023/08/24 04:56:08;;;;;;;55.47;30.98;;;;;;;;;;4991710;28;20042;-80
2023/08/24 04:58:34;;;;;;;55.65;32.00;;;;;;;;;;4991358;28;20118;-80
2023/08/24 05:01:00;;;;;;;53.92;31.98;;;;;;;;;;5015657;28;20093;-80
2023/08/24 05:03:26;;;;;;;52.75;30.67;;;;;;;;;;5022138;28;20024;-80
2023/08/24 05:05:52;;;;;;;53.00;32.65;;;;;;;;;;5022794;28;20018;-81
2023/08/24 05:11:28;;;;;;;57.13;33.00;;;;;;;;;;5019553;28;20029;-80
2023/08/24 05:13:55;;;;;;;60.42;31.77;;;;;;;;;;4995118;28;20033;-80
2023/08/24 05:16:22;;;;;;;49.13;30.05;;;;;;;;;;5007547;28;20113;-80
2023/08/24 05:18:48;;;;;;;53.17;30.58;;;;;;;;;;5010416;28;20081;-79
2023/08/24 05:21:14;;;;;;;48.58;30.25;;;;;;;;;;5008844;28;20050;-80
2023/08/24 05:23:40;;;;;;;48.60;29.50;;;;;;;;;;5009693;28;20072;-81
2023/08/24 05:26:06;;;;;;;46.55;27.25;;;;;;;;;;4992700;28;20049;-80
2023/08/24 05:28:33;;;;;;;41.47;27.48;;;;;;;;;;5003938;28;20034;-80
2023/08/24 05:30:59;;;;;;;45.20;25.10;;;;;;;;;;5008289;28;20038;-80
2023/08/24 05:33:25;;;;;;;37.17;23.88;;;;;;;;;;5006415;28;20121;-79
2023/08/24 05:35:52;;;;;;;31.38;21.15;;;;;;;;;;4977244;28;20038;-79
2023/08/24 05:38:18;;;;;;;29.83;21.10;;;;;;;;;;4991609;28;20034;-80
2023/08/24 05:40:48;;;;;;;29.92;18.75;;;;;;;;;;5015869;28;20032;-81
2023/08/24 05:43:14;;;;;;;26.37;17.20;;;;;;;;;;5018941;28;20041;-77
2023/08/24 05:45:43;;;;;;;28.48;16.73;;;;;;;;;;5016027;28;20382;-79
2023/08/24 05:48:09;;;;;;;24.88;17.27;;;;;;;;;;5017335;28;20034;-78
2023/08/24 05:50:37;;;;;;;25.13;15.85;;;;;;;;;;4997253;28;20336;-78
2023/08/24 05:53:05;;;;;;;23.10;15.77;;;;;;;;;;4994087;28;20052;-78
2023/08/24 05:55:33;;;;;;;19.67;14.75;;;;;;;;;;5001870;28;20424;-77
2023/08/24 05:57:59;;;;;;;23.48;14.25;;;;;;;;;;5007053;28;20392;-77
2023/08/24 06:00:27;;;;;;;19.05;12.70;;;;;;;;;;5006580;28;20364;-77
2023/08/24 06:02:53;;;;;;;20.10;13.00;;;;;;;;;;4974341;28;20034;-79
2023/08/24 06:05:19;;;;;;;19.48;12.90;;;;;;;;;;4989821;28;20034;-79
2023/08/24 06:07:45;;;;;;;17.42;11.40;;;;;;;;;;5008588;28;20030;-78
2023/08/24 06:10:12;;;;;;;20.73;12.73;;;;;;;;;;4987819;28;20541;-79
2023/08/24 06:12:38;;;;;;;24.58;13.60;;;;;;;;;;4988849;28;20123;-78
2023/08/24 06:15:07;;;;;;;19.48;12.82;;;;;;;;;;5008351;28;20089;-80
2023/08/24 06:17:35;;;;;;;26.13;14.23;;;;;;;;;;4989258;28;20037;-79
2023/08/24 06:20:03;;;;;;;22.85;12.55;;;;;;;;;;5009594;28;20037;-78
2023/08/24 06:22:29;;;;;;;16.15;12.30;;;;;;;;;;4992577;28;20465;-81
2023/08/24 06:24:59;;;;;;;22.73;11.88;;;;;;;;;;5018901;28;20403;-79
2023/08/24 06:27:26;;;;;;;17.98;11.38;;;;;;;;;;5016009;28;20062;-77
2023/08/24 06:29:52;;;;;;;20.95;11.13;;;;;;;;;;5016106;28;20061;-81
2023/08/24 06:32:18;;;;;;;16.67;12.07;;;;;;;;;;4994868;28;20138;-79
2023/08/24 06:34:44;;;;;;;21.65;10.63;;;;;;;;;;4991257;28;20038;-79
2023/08/24 06:37:10;;;;;;;13.93;10.07;;;;;;;;;;5009901;28;20030;-80
2023/08/24 06:39:36;;;;;;;17.65;11.32;;;;;;;;;;5011597;28;20108;-81
2023/08/24 06:42:03;;;;;;;22.27;12.50;;;;;;;;;;5011028;28;20056;-78
2023/08/24 06:44:30;;;;;;;19.27;11.25;;;;;;;;;;4993948;28;20026;-79
2023/08/24 06:46:56;;;;;;;26.67;12.20;;;;;;;;;;5011170;28;20034;-77
2023/08/24 06:49:22;;;;;;;16.45;11.73;;;;;;;;;;4976856;28;20038;-78
2023/08/24 06:51:49;;;;;;;16.08;11.95;;;;;;;;;;4991519;28;20101;-78
2023/08/24 06:54:15;;;;;;;21.08;12.27;;;;;;;;;;4995695;28;20038;-80
2023/08/24 06:56:43;;;;;;;18.52;12.18;;;;;;;;;;5010611;28;20070;-79
2023/08/24 06:59:11;;;;;;;19.52;12.95;;;;;;;;;;5011044;28;20049;-77
2023/08/24 07:01:37;;;;;;;18.13;13.00;;;;;;;;;;5011914;28;20084;-78
2023/08/24 07:04:03;;;;;;;16.55;12.25;;;;;;;;;;4996623;28;20088;-77
2023/08/24 07:06:29;;;;;;;18.08;12.38;;;;;;;;;;5013985;28;20056;-77
2023/08/24 07:08:55;;;;;;;21.92;13.02;;;;;;;;;;4993340;28;20042;-77
2023/08/24 07:11:23;;;;;;;18.73;12.00;;;;;;;;;;5014426;28;20407;-79
2023/08/24 07:13:50;;;;;;;21.23;12.90;;;;;;;;;;4996381;28;20092;-79
2023/08/24 07:16:16;;;;;;;19.83;12.73;;;;;;;;;;4988351;28;20134;-78
2023/08/24 07:18:42;;;;;;;19.40;12.23;;;;;;;;;;4990158;28;20046;-78
2023/08/24 07:21:08;;;;;;;20.55;12.10;;;;;;;;;;4990873;28;20500;-78
2023/08/24 07:23:34;;;;;;;19.73;12.80;;;;;;;;;;5000194;28;20128;-77
2023/08/24 07:26:00;;;;;;;19.42;11.73;;;;;;;;;;5010865;28;20041;-77
2023/08/24 07:28:29;;;;;;;19.35;12.93;;;;;;;;;;5010534;28;20030;-78
2023/08/24 07:30:56;;;;;;;19.58;13.02;;;;;;;;;;4994130;28;20038;-78
2023/08/24 07:33:22;;;;;;;17.98;12.80;;;;;;;;;;5011200;28;20056;-78
2023/08/24 07:35:48;;;;;;;19.42;12.15;;;;;;;;;;5009774;28;20109;-78
2023/08/24 07:38:14;;;;;;;16.30;12.50;;;;;;;;;;5010412;28;20045;-78
2023/08/24 07:40:40;;;;;;;22.08;12.45;;;;;;;;;;5011117;28;20061;-79
2023/08/24 07:43:07;;;;;;;16.17;11.80;;;;;;;;;;5002999;28;20108;-76
2023/08/24 07:45:33;;;;;;;22.38;12.73;;;;;;;;;;4996302;28;20189;-76
2023/08/24 07:47:59;;;;;;;18.52;12.07;;;;;;;;;;5018321;28;20212;-76
2023/08/24 07:50:25;;;;;;;17.55;10.73;;;;;;;;;;5004956;28;20437;-75
2023/08/24 07:52:52;;;;;;;16.02;10.98;;;;;;;;;;5011856;28;20057;-77
2023/08/24 07:55:18;;;;;;;15.27;11.18;;;;;;;;;;5012025;28;20105;-78
2023/08/24 07:57:44;;;;;;;20.15;10.20;;;;;;;;;;4991018;28;20038;-77
2023/08/24 08:00:11;;;;;;;16.80;11.02;;;;;;;;;;4992352;28;20066;-75
2023/08/24 08:02:40;;;;;;;17.63;10.20;;;;;;;;;;5009702;28;20049;-78
2023/08/24 08:05:07;;;;;;;15.13;10.50;;;;;;;;;;5008642;28;20033;-77
2023/08/24 08:07:33;;;;;;;21.38;9.85;;;;;;;;;;5010034;28;20404;-78
2023/08/24 08:10:00;;;;;;;19.52;9.50;;;;;;;;;;5010552;28;20034;-77
2023/08/24 08:12:26;;;;;;;14.35;9.68;;;;;;;;;;4976525;28;20415;-77
2023/08/24 08:14:52;;;;;;;15.38;9.30;;;;;;;;;;5009926;28;20169;-77
2023/08/24 08:17:19;;;;;;;17.70;9.90;;;;;;;;;;5005534;28;20040;-77
2023/08/24 08:19:46;;;;;;;18.02;8.93;;;;;;;;;;4983162;28;20122;-78
2023/08/24 08:22:13;;;;;;;19.60;9.10;;;;;;;;;;4992376;28;20131;-78
2023/08/24 08:24:39;;;;;;;14.75;8.75;;;;;;;;;;5009959;28;20053;-76
2023/08/24 08:27:05;;;;;;;19.98;8.50;;;;;;;;;;5010588;28;20060;-77
2023/08/24 08:29:31;;;;;;;15.90;8.52;;;;;;;;;;5017119;28;20037;-76
2023/08/24 08:31:57;;;;;;;12.05;6.90;;;;;;;;;;4998019;28;20529;-77
2023/08/24 08:34:24;;;;;;;15.52;7.95;;;;;;;;;;5015731;28;20097;-76
2023/08/24 08:36:50;;;;;;;13.73;7.32;;;;;;;;;;4975911;28;20105;-77
2023/08/24 08:39:17;;;;;;;11.27;7.18;;;;;;;;;;5014269;28;20100;-79
2023/08/24 08:41:44;;;;;;;16.30;6.93;;;;;;;;;;5013288;28;20056;-77
2023/08/24 08:44:13;;;;;;;12.30;7.40;;;;;;;;;;5011548;28;20046;-77
2023/08/24 08:46:41;;;;;;;15.40;7.10;;;;;;;;;;5012333;28;20033;-77
2023/08/24 08:49:10;;;;;;;11.10;7.10;;;;;;;;;;5012951;28;20025;-76
2023/08/24 08:51:37;;;;;;;13.90;7.57;;;;;;;;;;5013058;28;20078;-77
2023/08/24 08:54:05;;;;;;;12.38;7.35;;;;;;;;;;5012580;28;20038;-77
2023/08/24 08:56:32;;;;;;;12.80;7.50;;;;;;;;;;4985757;28;20054;-78
2023/08/24 08:59:00;;;;;;;12.88;7.07;;;;;;;;;;4994760;28;20038;-77
2023/08/24 09:01:26;;;;;;;13.68;6.78;;;;;;;;;;4980362;28;20455;-77
2023/08/24 09:03:53;;;;;;;11.93;7.45;;;;;;;;;;5012265;28;20038;-76
2023/08/24 09:06:19;;;;;;;14.20;7.35;;;;;;;;;;5012675;28;20422;-77
2023/08/24 09:08:46;;;;;;;9.38;6.97;;;;;;;;;;4999988;28;20044;-76
2023/08/24 09:11:12;;;;;;;13.57;6.82;;;;;;;;;;5016486;28;20040;-75
2023/08/24 09:13:38;;;;;;;12.88;6.60;;;;;;;;;;4999357;28;20042;-77
2023/08/24 09:16:08;;;;;;;13.27;6.20;;;;;;;;;;5015010;28;20086;-77
2023/08/24 09:18:36;;;;;;;11.30;6.72;;;;;;;;;;5013911;28;20061;-78
2023/08/24 09:21:08;;;;;;;8.48;6.43;;;;;;;;;;5012625;28;20117;-77
2023/08/24 09:23:34;;;;;;;12.85;6.90;;;;;;;;;;4996627;28;20496;-78
2023/08/24 09:26:00;;;;;;;9.20;5.95;;;;;;;;;;4992848;28;20118;-78
2023/08/24 09:28:27;;;;;;;10.63;5.80;;;;;;;;;;5011413;28;20032;-78
2023/08/24 09:30:55;;;;;;;10.52;5.88;;;;;;;;;;5012241;28;20624;-78
2023/08/24 09:33:25;;;;;;;11.48;5.40;;;;;;;;;;5011265;28;20029;-78
2023/08/24 09:36:01;;;;;;;14.98;6.95;;;;;;;;;;4979693;28;20045;-78
2023/08/24 09:38:28;;;;;;;9.73;6.13;;;;;;;;;;5012741;28;20038;-78
2023/08/24 09:40:55;;;;;;;9.90;5.78;;;;;;;;;;5012053;28;20034;-78
2023/08/24 09:43:22;;;;;;;9.45;6.15;;;;;;;;;;4994551;28;20400;-78
2023/08/24 09:45:50;;;;;;;9.00;5.40;;;;;;;;;;5015152;28;20041;-78
2023/08/24 09:48:19;;;;;;;13.52;5.40;;;;;;;;;;5001164;28;20121;-79
2023/08/24 09:50:46;;;;;;;10.55;6.03;;;;;;;;;;5017193;28;20034;-78
2023/08/24 09:53:20;;;;;;;13.00;6.05;;;;;;;;;;5015912;28;20104;-78
2023/08/24 09:55:59;;;;;;;9.65;5.57;;;;;;;;;;5014423;28;20507;-78
2023/08/24 09:58:25;;;;;;;12.73;5.63;;;;;;;;;;4991085;28;20042;-78
2023/08/24 10:00:52;;;;;;;17.55;5.00;;;;;;;;;;4993982;28;20042;-78
2023/08/24 10:03:22;;;;;;;9.95;5.32;;;;;;;;;;4994210;28;20121;-78
2023/08/24 10:05:51;;;;;;;10.38;5.50;;;;;;;;;;5011897;28;20030;-79
2023/08/24 10:08:21;;;;;;;11.57;5.15;;;;;;;;;;5011499;28;20060;-77
2023/08/24 10:10:49;;;;;;;10.88;5.43;;;;;;;;;;5011202;28;20021;-79
2023/08/24 10:13:19;;;;;;;12.23;5.35;;;;;;;;;;4994119;28;20104;-78
2023/08/24 10:15:46;;;;;;;;;;;;;;;;;;5012151;28;20128;-79
2023/08/24 10:18:13;;;;;;;16.40;6.57;;;;;;;;;;4993117;28;19917;-77
2023/08/24 10:20:40;;;;;;;17.00;7.70;;;;;;;;;;4982225;28;20425;-77
2023/08/24 10:23:06;;;;;;;14.60;7.68;;;;;;;;;;5010844;28;20042;-79
2023/08/24 10:25:32;;;;;;;14.85;7.97;;;;;;;;;;5015551;28;20076;-77
2023/08/24 10:28:01;;;;;;;17.70;8.30;;;;;;;;;;5016576;28;20034;-77
2023/08/24 10:30:29;;;;;;;16.45;8.77;;;;;;;;;;5007879;28;20032;-76
2023/08/24 10:32:56;;;;;;;19.20;9.35;;;;;;;;;;5016862;28;20056;-78
2023/08/24 10:35:23;;;;;;;20.58;9.65;;;;;;;;;;5015100;28;20037;-77
2023/08/24 10:37:53;;;;;;;17.35;9.43;;;;;;;;;;5008906;28;20117;-77
2023/08/24 10:40:35;;;;;;;15.32;10.07;;;;;;;;;;4993371;28;20038;-78
2023/08/24 10:43:05;;;;;;;16.58;10.57;;;;;;;;;;4993583;28;20030;-78
2023/08/24 10:45:51;;;;;;;18.42;10.82;;;;;;;;;;4993166;28;20088;-78
2023/08/24 10:48:17;;;;;;;21.77;12.02;;;;;;;;;;4992691;28;20040;-78
2023/08/24 10:51:03;;;;;;;19.75;11.57;;;;;;;;;;4993163;28;20029;-78
2023/08/24 10:53:39;;;;;;;20.17;12.13;;;;;;;;;;5006932;28;20117;-78
2023/08/24 10:56:12;;;;;;;23.08;12.52;;;;;;;;;;5009788;28;20096;-79
2023/08/24 10:58:38;;;;;;;19.58;12.27;;;;;;;;;;5005112;28;20116;-76
2023/08/24 11:01:04;;;;;;;17.25;12.10;;;;;;;;;;4993590;28;20053;-75
2023/08/24 11:03:32;;;;;;;15.75;11.48;;;;;;;;;;4996385;28;20456;-78
2023/08/24 11:05:59;;;;;;;20.65;12.07;;;;;;;;;;4996809;28;20038;-76
2023/08/24 11:08:43;;;;;;;18.38;12.43;;;;;;;;;;5002067;28;20033;-78
2023/08/24 11:11:19;;;;;;;18.13;12.15;;;;;;;;;;5015807;28;20500;-77
2023/08/24 11:14:03;;;;;;;17.65;12.63;;;;;;;;;;5012421;28;20056;-78
2023/08/24 11:16:39;;;;;;;31.58;14.45;;;;;;;;;;5011169;28;20376;-77
2023/08/24 11:19:07;;;;;;;19.55;13.23;;;;;;;;;;5010490;28;20037;-77
2023/08/24 11:21:36;;;;;;;28.20;14.93;;;;;;;;;;5010579;28;20049;-77
2023/08/24 11:24:02;;;;;;;22.00;16.17;;;;;;;;;;4996282;28;20129;-78
2023/08/24 11:26:30;;;;;;;19.75;15.48;;;;;;;;;;5010134;28;20479;-77
2023/08/24 11:28:57;;;;;;;24.70;15.13;;;;;;;;;;4992465;28;20203;-78
2023/08/24 11:31:26;;;;;;;21.45;15.38;;;;;;;;;;5010591;28;20506;-78
2023/08/24 11:33:56;;;;;;;21.83;14.57;;;;;;;;;;5010178;28;20044;-78
2023/08/24 11:36:23;;;;;;;26.48;15.57;;;;;;;;;;4988555;28;20113;-78
2023/08/24 11:38:51;;;;;;;27.58;15.90;;;;;;;;;;5005873;28;20030;-77
2023/08/24 11:41:18;;;;;;;24.05;15.45;;;;;;;;;;5004656;28;20026;-78
2023/08/24 11:43:45;;;;;;;25.63;15.63;;;;;;;;;;5008139;28;20144;-78
2023/08/24 11:46:12;;;;;;;24.40;15.95;;;;;;;;;;4997625;28;20120;-78
2023/08/24 11:48:39;;;;;;;27.77;14.75;;;;;;;;;;5007802;28;20049;-78
2023/08/24 11:51:08;;;;;;;20.80;15.15;;;;;;;;;;5002163;28;21351;-77
2023/08/24 11:53:38;;;;;;;20.70;14.63;;;;;;;;;;5008793;28;20026;-78
2023/08/24 11:56:05;;;;;;;22.05;15.55;;;;;;;;;;5004193;28;20065;-77
2023/08/24 11:58:32;;;;;;;21.13;14.07;;;;;;;;;;5009602;28;20062;-78
2023/08/24 12:00:58;;;;;;;25.65;14.10;;;;;;;;;;5009437;28;20052;-78
2023/08/24 12:03:24;;;;;;;21.65;13.90;;;;;;;;;;4986795;28;20034;-77
2023/08/24 12:05:50;;;;;;;26.35;14.57;;;;;;;;;;5010484;28;20015;-77
2023/08/24 12:08:17;;;;;;;26.00;14.48;;;;;;;;;;5010514;28;20034;-79
2023/08/24 12:10:44;;;;;;;23.85;14.90;;;;;;;;;;5009193;28;20041;-78
2023/08/24 12:13:10;;;;;;;21.33;14.30;;;;;;;;;;5008807;28;20554;-79
2023/08/24 12:15:37;;;;;;;25.48;15.18;;;;;;;;;;5002569;28;20130;-78
2023/08/24 12:18:13;;;;;;;22.70;14.77;;;;;;;;;;5008194;28;20018;-78
2023/08/24 12:20:40;;;;;;;25.27;15.57;;;;;;;;;;4987446;28;20041;-77
2023/08/24 12:23:06;;;;;;;19.17;12.85;;;;;;;;;;5010067;28;20022;-78
2023/08/24 12:25:37;;;;;;;18.17;13.70;;;;;;;;;;5010423;28;20031;-79
2023/08/24 12:28:03;;;;;;;;;;;;;;;;;;5008868;28;20034;-79
2023/08/24 12:30:30;;;;;;;18.88;14.65;;;;;;;;;;5010089;28;19913;-78
2023/08/24 12:32:56;;;;;;;20.83;15.30;;;;;;;;;;4990607;28;20042;-78
2023/08/24 12:35:22;;;;;;;21.35;14.95;;;;;;;;;;5006574;28;20026;-78
2023/08/24 12:37:48;;;;;;;22.10;14.80;;;;;;;;;;4991199;28;20038;-77
2023/08/24 12:40:15;;;;;;;22.70;16.25;;;;;;;;;;5003328;28;20084;-77
2023/08/24 12:42:43;;;;;;;23.70;17.65;;;;;;;;;;5003852;28;20050;-77
2023/08/24 12:45:10;;;;;;;23.98;17.73;;;;;;;;;;4991226;28;20022;-78
2023/08/24 12:47:38;;;;;;;23.00;17.05;;;;;;;;;;4986064;28;20019;-77
2023/08/24 12:50:05;;;;;;;28.48;16.95;;;;;;;;;;4989887;28;20057;-77
2023/08/24 12:52:32;;;;;;;21.23;14.63;;;;;;;;;;5001906;28;20109;-78
2023/08/24 12:54:58;;;;;;;20.25;13.88;;;;;;;;;;4987209;28;20029;-76
2023/08/24 12:57:24;;;;;;;20.52;14.90;;;;;;;;;;5006394;28;20566;-76
2023/08/24 12:59:51;;;;;;;26.38;15.02;;;;;;;;;;5009916;28;20053;-74
2023/08/24 13:02:17;;;;;;;25.73;16.13;;;;;;;;;;5013565;28;20037;-77
2023/08/24 13:04:44;;;;;;;21.38;14.15;;;;;;;;;;5008350;28;20049;-75
2023/08/24 13:07:10;;;;;;;20.40;15.05;;;;;;;;;;5003618;28;20352;-77
2023/08/24 13:09:36;;;;;;;23.20;14.00;;;;;;;;;;5002899;28;20076;-76
2023/08/24 13:12:02;;;;;;;21.63;14.63;;;;;;;;;;5006791;28;20034;-77
2023/08/24 13:14:29;;;;;;;24.73;14.57;;;;;;;;;;4992176;28;20028;-79
2023/08/24 13:16:55;;;;;;;21.42;14.52;;;;;;;;;;4990739;28;20052;-78
2023/08/24 13:19:21;;;;;;;22.60;16.08;;;;;;;;;;4996147;28;20033;-79
2023/08/24 13:21:47;;;;;;;23.80;15.95;;;;;;;;;;4991848;28;20062;-77
2023/08/24 13:24:13;;;;;;;21.80;15.82;;;;;;;;;;5008812;28;20041;-77
2023/08/24 13:26:40;;;;;;;19.38;14.63;;;;;;;;;;4999847;28;20389;-77
2023/08/24 13:29:06;;;;;;;20.90;14.50;;;;;;;;;;5004206;28;20446;-77
2023/08/24 13:31:32;;;;;;;20.63;14.98;;;;;;;;;;5004311;28;20080;-77
2023/08/24 13:33:58;;;;;;;26.48;15.25;;;;;;;;;;4992798;28;20033;-78
2023/08/24 13:36:24;;;;;;;24.33;14.05;;;;;;;;;;5008705;28;20038;-78
2023/08/24 13:38:51;;;;;;;22.45;15.18;;;;;;;;;;5009818;28;20030;-78
2023/08/24 13:41:17;;;;;;;22.02;14.63;;;;;;;;;;5011637;28;20034;-79
2023/08/24 13:43:44;;;;;;;22.02;15.50;;;;;;;;;;5014140;28;20080;-78
2023/08/24 13:46:10;;;;;;;20.95;15.90;;;;;;;;;;5007898;28;20026;-79
2023/08/24 13:48:36;;;;;;;20.30;15.70;;;;;;;;;;4981213;28;20037;-78
2023/08/24 13:51:03;;;;;;;21.45;15.55;;;;;;;;;;4992838;28;20104;-80
2023/08/24 13:53:29;;;;;;;21.92;16.23;;;;;;;;;;4987399;28;21271;-79
2023/08/24 13:55:55;;;;;;;23.08;17.48;;;;;;;;;;4974547;28;20113;-79
2023/08/24 13:58:21;;;;;;;26.55;18.30;;;;;;;;;;4992120;28;20096;-79
2023/08/24 14:00:48;;;;;;;24.88;19.58;;;;;;;;;;5007873;28;20463;-79
2023/08/24 14:03:14;;;;;;;27.33;20.80;;;;;;;;;;5006234;28;20117;-79
2023/08/24 14:05:40;;;;;;;27.08;20.40;;;;;;;;;;5007561;28;20048;-79
2023/08/24 14:08:07;;;;;;;31.33;22.70;;;;;;;;;;5010680;28;20026;-79
2023/08/24 14:10:34;;;;;;;33.00;20.50;;;;;;;;;;4990054;28;20554;-79
2023/08/24 14:13:00;;;;;;;31.38;20.55;;;;;;;;;;4995936;28;20052;-80
2023/08/24 14:15:26;;;;;;;27.83;18.05;;;;;;;;;;5009174;28;20101;-81
2023/08/24 14:17:52;;;;;;;26.58;15.57;;;;;;;;;;4998044;28;20026;-80
2023/08/24 14:20:19;;;;;;;24.60;17.50;;;;;;;;;;5006849;28;20038;-80
2023/08/24 14:22:48;;;;;;;26.33;17.90;;;;;;;;;;5008199;28;20301;-79
2023/08/24 14:25:14;;;;;;;26.05;19.00;;;;;;;;;;5003526;28;20029;-79